SKCC/CUC METAR and TAF weather

Enter ICAO airport designator
Station Type Date Time Source
SKCC METAR 2020/01/26 04:00 UTC NOAA

SKCC 260400Z VRB02KT 9999 SCT020 SCT080 25/22 A3002


Station Type Date Time Source
SKCC Decoded METAR 2020/01/26 04:00 UTC NOAA

Cucuta / Camilo Daza, Colombia (SKCC) 07-56N 072-31W 317M
Jan 25, 2020 - 11:00 PM EST / 2020.01.26 0400 UTC
Wind: Variable at 2 MPH (2 KT):0
Visibility: greater than 7 mile(s):0
Sky conditions: partly cloudy
Temperature: 77 F (25 C)
Dew Point: 71 F (22 C)
Relative Humidity: 83%
Pressure (altimeter): 30.02 in. Hg (1016 hPa)
ob: SKCC 260400Z VRB02KT 9999 SCT020 SCT080 25/22 A3002
cycle: 4

Station Type Date Time Source
SKCC TAF 2020/01/25 18:45 UTC NOAA

TAF SKCC 251630Z 2518/2618 36006KT 8000 BKN012 SCT070
TEMPO 2518/2520 HZ
BECMG 2520/2522 VRB02KT PROB40
TEMPO 2522/2601 6000 RADZ SCT017CB BKN070
TEMPO 2609/2613 4000 BCFG BKN010 TX31/2519Z TN23/2611Z

Example: see airport list